Terminal Aerodrome Forecast
Issued by NWS

Home | Current Version | Previous Version | Text Only | Print | Product List | Glossary On
Versions: 1 2 3 4 5 6 7 8 9 10 11 12 13 14 15 16 17 18 19 20
000
FTUS46 KSEW 272346
TAFPAE
TAF
KPAE 272346Z 2800/2824 32005KT P6SM VCSH SCT007 BKN020 OVC040
      TEMPO 2800/2802 2SM -SN BR BKN005 OVC012
     FM280200 32005KT P6SM VCSH BKN009 OVC020
     FM280400 18004KT P6SM SCT015 BKN025 OVC040
     FM281400 18005KT P6SM SCT010 OVC015=

USA.gov is the U.S. government's official web portal to all federal, state and local government web resources and services.